Flight Track Log - Related Links

Times and Time Zones

All times are in EDT time to prevent confusion due to time zone crossing. See the N3726K flight status page for this flight to view local times or setup timezone preferences in your user account.

Time Position Orientation Groundspeed Altitude Reporting Facility
EDT Latitude Longitude Course Direction KTS MPH feet Rate Location/Type
Tue 06:03:24 PM 41.5003 -92.9308 340° North 164 189 3,900  Level Minneapolis Center
Tue 06:04:01 PM 41.5239 -92.9422 340° North 156 180 4,300 857 Climbing Minneapolis Center
Tue 06:05:02 PM 41.5667 -92.9547 348° North 150 173 5,300 992 Climbing Minneapolis Center
Tue 06:06:02 PM 41.6053 -92.9756 338° Northwest 141 162 6,300 887 Climbing Minneapolis Center
Tue 06:06:57 PM 41.6428 -92.9689 North 152 175 7,000 672 Climbing Minneapolis Center
Tue 06:07:58 PM 41.6883 -92.9614 North 160 184 7,600 492 Climbing Minneapolis Center
Tue 06:08:59 PM 41.7322 -92.9653 356° North 162 186 8,000 197 Climbing Minneapolis Center
Tue 06:10:00 PM 41.7767 -92.9781 348° North 180 207 8,000  Level Minneapolis Center
Tue 06:11:02 PM 41.8358 -92.9828 357° North 195 224 8,000  Level Minneapolis Center
Tue 06:12:04 PM 41.8894 -92.9881 356° North 195 224 8,000  Level Minneapolis Center
Tue 06:13:06 PM 41.9481 -92.9928 357° North 196 226 8,000  Level Minneapolis Center
Tue 06:14:08 PM 42.0022 -92.9986 355° North 196 226 8,000  Level Minneapolis Center
Tue 06:15:10 PM 42.0606 -93.0031 357° North 195 224 8,000  Level Minneapolis Center
Tue 06:16:12 PM 42.1142 -93.0067 357° North 193 222 8,000  Level Minneapolis Center
Tue 06:17:15 PM 42.1683 -93.0117 356° North 196 226 8,000  Level Minneapolis Center
Tue 06:18:17 PM 42.2181 -93.0144 358° North 193 222 8,000  Level Minneapolis Center
Tue 06:19:19 PM 42.2719 -93.0186 357° North 193 222 8,000  Level Minneapolis Center
Tue 06:20:22 PM 42.3364 -93.0250 356° North 194 223 8,000  Level Minneapolis Center
Tue 06:21:24 PM 42.3881 -93.0286 357° North 192 221 8,000  Level Minneapolis Center
Tue 06:22:26 PM 42.4411 -93.0333 356° North 192 221 8,000  Level Minneapolis Center
Tue 06:23:28 PM 42.4942 -93.0383 356° North 192 221 8,000  Level Minneapolis Center
Tue 06:24:30 PM 42.5597 -93.0433 357° North 194 223 8,000  Level Minneapolis Center
Tue 06:25:47 PM 42.6208 -93.0469 358° North 195 224 8,000  Level Chicago Center
Tue 06:26:49 PM 42.6739 -93.0553 353° North 195 224 8,000  Level Chicago Center
Tue 06:27:51 PM 42.7250 -93.0706 348° North 193 222 8,000  Level Chicago Center
Tue 06:28:53 PM 42.7883 -93.0717 359° North 193 222 8,000  Level Chicago Center
Tue 06:29:55 PM 42.8433 -93.0683 North 196 226 8,000  Level Chicago Center
Tue 06:30:43 PM 42.8875 -93.0728 356° North 192 221 8,000  Level Minneapolis Center
Tue 06:31:45 PM 42.9392 -93.0761 357° North 189 217 8,000  Level Minneapolis Center
Tue 06:32:47 PM 42.9936 -93.0706 North 193 222 8,000  Level Minneapolis Center
Tue 06:33:49 PM 43.0450 -93.0722 359° North 191 220 8,000  Level Minneapolis Center
Tue 06:34:51 PM 43.1042 -93.0919 346° North 184 212 8,000  Level Minneapolis Center
Tue 06:35:53 PM 43.1544 -93.0983 355° North 184 212 8,000  Level Minneapolis Center
Tue 06:36:55 PM 43.2053 -93.1022 357° North 183 211 8,000  Level Minneapolis Center
Tue 06:37:57 PM 43.2572 -93.1069 356° North 185 213 8,000  Level Minneapolis Center
Tue 06:38:59 PM 43.3225 -93.1094 358° North 191 220 8,000  Level Minneapolis Center
Tue 06:40:01 PM 43.3742 -93.1136 357° North 189 217 8,000  Level Minneapolis Center
Tue 06:41:03 PM 43.4297 -93.1197 355° North 187 215 8,000  Level Minneapolis Center
Tue 06:42:06 PM 43.4800 -93.1244 356° North 184 212 8,000  Level Minneapolis Center
Tue 06:43:08 PM 43.5358 -93.1272 358° North 186 214 8,000  Level Minneapolis Center
Tue 06:44:10 PM 43.5869 -93.1336 355° North 188 216 8,000  Level Minneapolis Center
Tue 06:45:12 PM 43.6436 -93.1381 357° North 189 217 8,000  Level Minneapolis Center
Tue 06:46:14 PM 43.6953 -93.1400 358° North 188 216 8,000  Level Minneapolis Center
Tue 06:47:16 PM 43.7514 -93.1419 359° North 189 217 8,000  Level Minneapolis Center
Tue 06:48:18 PM 43.8028 -93.1439 358° North 186 214 8,000  Level Minneapolis Center
Tue 06:49:20 PM 43.8581 -93.1453 359° North 184 212 8,000  Level Minneapolis Center
Tue 06:50:22 PM 43.9100 -93.1467 359° North 189 217 8,000 -194 Level Minneapolis Center
Tue 06:51:24 PM 43.9683 -93.1492 358° North 195 224 7,600 -435 Descending Minneapolis Center
Tue 06:52:26 PM 44.0256 -93.1506 359° North 209 241 7,100 -581 Descending Minneapolis Center
Tue 06:53:28 PM 44.0867 -93.1522 359° North 210 242 6,400 -629 Descending Minneapolis Center
Tue 06:54:30 PM 44.1458 -93.1550 358° North 213 245 5,800 -240 Descending Minneapolis Center
Tue 06:55:33 PM 44.2000 -93.1539 North 192 221 5,900 48 Climbing Minneapolis Center
Tue 06:56:35 PM 44.2525 -93.1581 357° North 189 217 5,900 -97 Level Minneapolis Center
Tue 06:57:37 PM 44.3167 -93.1597 359° North 193 222 5,700 -484 Descending Minneapolis Center
Tue 06:58:39 PM 44.3750 -93.1622 358° North 209 241 4,900 -774 Descending Minneapolis Center
Tue 06:59:41 PM 44.4353 -93.1633 359° North 216 249 4,100 -484 Descending Minneapolis Center
Tue 07:00:43 PM 44.4922 -93.1647 359° North 214 246 3,900 -194 Descending Minneapolis Center

Login

Don't have an account? Register now (free) for customized features, flight alerts, and more!